LEPALELN

Guest
Details From LEPA - Palma De Mallorca
To LELN - Leon
Flight Number -
Tags decoded
Created
Modified
Stats Distance 421 nm / 780 km
Max Altitude 0 ft / 0 m
Waypoints 2
Social Downloads 0
Likes 0
Share VATSIM

Download

Looking for another format? Having issues loading an existing format? Contact us
Advertisement - Login to hide

Notes

Requested: LEPA LELN

Route

LEPA LELN

ID Type Via Altitude Latitude Longitude Leg Dist Tot Dist Heading (true) Name
O LEPA APT - 0 ft / 0 m 39.55254˚ 2.73496˚ - 0 nm - Palma De Mallorca
O LELN APT - 0 ft / 0 m 42.59194˚ -5.65419˚ 421 nm 421 nm 298° / 293° Leon

Altitude Profile

Advertisement - Login to hide

Weather


0- 5 10 15 20 25 30 35+ Temperature / ° C

Clouds and Precipitation
Forecast for 2017-12-13 06:00 UTC. Updated 11 minutes ago

Ground ~20,000 ft ~40,000 ft Winds

LEPA

Details ICAO LEPA (PMI)
Name Palma De Mallorca
Region Spain
Timezone Europe/Madrid (UTC+1.0)
Stats Elevation 24 ft / 7 m (AMSL)
Location 39.552536° 2.734958°
Runways 3
Magnetic Variation 0.985° E

METAR

LEPA 130530Z VRB01KT 9999 FEW023 03/02 Q1024 NOSIG

Decode

TAF

TAF AMD LEPA 130015Z 1300/1324 VRB03KT 9999 SCT020 TX15/1312Z TN03/1306Z PROB40 TEMPO 1300/1304 08008KT BECMG 1311/1313 24013KT

Decode

Departure Runways

ID Width Length Bearing (true) Bearing (mag) Surface Threshold Offset Overrun Length
06C 148 ft / 45 m 8,181 ft / 2,494 m 58.47° 57.48° Asphalt 0 ft / 0 m 0 ft / 0 m
06L 148 ft / 45 m 10,716 ft / 3,266 m 58.46° 57.47° Asphalt 0 ft / 0 m 0 ft / 0 m
06R 148 ft / 45 m 9,832 ft / 2,997 m 58.48° 57.49° Asphalt 1,345 ft / 410 m 0 ft / 0 m
24C 148 ft / 45 m 8,181 ft / 2,494 m 238.49° 237.50° Asphalt 0 ft / 0 m 0 ft / 0 m
24L 148 ft / 45 m 9,832 ft / 2,997 m 238.50° 237.51° Asphalt 0 ft / 0 m 197 ft / 60 m
24R 148 ft / 45 m 10,716 ft / 3,266 m 238.48° 237.49° Asphalt 230 ft / 70 m 0 ft / 0 m

LELN

Details ICAO LELN (LEN)
Name Leon
Region Spain
Timezone Europe/Madrid (UTC+1.0)
Stats Elevation 3,006 ft / 916 m (AMSL)
Location 42.591935° -5.654188°
Runways 2
Magnetic Variation 1.437° W

METAR

LELN 130500Z VRB01KT 4000 BR BKN003 01/00 Q1022

Decode

TAF

Not found

Destination Runways

ID Width Length Bearing (true) Bearing (mag) Surface Threshold Offset Overrun Length
05 148 ft / 45 m 9,836 ft / 2,998 m 45.23° 46.67° Asphalt 0 ft / 0 m 210 ft / 64 m
06 328 ft / 100 m 3,602 ft / 1,098 m 59.75° 61.19° Dirt 0 ft / 0 m 0 ft / 0 m
23 148 ft / 45 m 9,836 ft / 2,998 m 225.25° 226.69° Asphalt 0 ft / 0 m 190 ft / 58 m
24 328 ft / 100 m 3,602 ft / 1,098 m 239.75° 241.19° Dirt 0 ft / 0 m 0 ft / 0 m

Approach Navaids

Runway Type Ident Frequency Range Bearing (true) Bearing (mag) Slope Elevation
23 Localiser ILE 109.50 MHz 18 nm / 33 km 225.22° 226.66° - 3,006 ft / 916 m (AMSL)
23 Glidescope ILE 109.50 MHz 10 nm / 19 km 225.24° 226.67° 3.00° 3,026 ft / 922 m (AMSL)

Popular Alternatives